Time,TemperatureF,DewpointF,PressureIn,WindDirection,WindDirectionDegrees,WindSpeedMPH,WindSpeedGustMPH,Humidity,HourlyPrecipIn,Conditions,Clouds,dailyrainin,SolarRadiationWatts/m^2,SoftwareType,DateUTC
2013-07-26 00:02:00,66.0,65.0,30.15,North,10,4.0,5.0,98,-99.99,,,0.00,0.000000,,2013-07-26 04:02:00,
2013-07-26 01:10:00,65.0,60.0,30.15,NNE,13,5.0,9.0,83,-99.99,,,0.00,0.000000,,2013-07-26 05:10:00,
2013-07-26 01:43:00,65.0,60.0,30.15,NNE,13,5.0,9.0,83,-99.99,,,0.00,0.000000,,2013-07-26 05:43:00,
2013-07-26 01:52:00,65.0,60.0,30.15,NNE,13,5.0,9.0,83,-99.99,,,0.00,0.000000,,2013-07-26 05:52:00,
2013-07-26 02:02:00,65.0,60.0,30.15,NNE,13,5.0,9.0,83,-99.99,,,0.00,0.000000,,2013-07-26 06:02:00,
2013-07-26 02:10:00,64.0,59.0,30.14,NNE,15,5.0,7.0,83,0.00,,,0.00,0.000000,,2013-07-26 06:10:00,
2013-07-26 02:43:00,64.0,59.0,30.14,NNE,15,5.0,7.0,83,0.00,,,0.00,0.000000,,2013-07-26 06:43:00,
2013-07-26 02:52:00,64.0,59.0,30.14,NNE,15,5.0,7.0,83,0.00,,,0.00,0.000000,,2013-07-26 06:52:00,
2013-07-26 03:02:00,64.0,59.0,30.14,NNE,15,5.0,7.0,83,0.00,,,0.00,0.000000,,2013-07-26 07:02:00,
2013-07-26 03:10:00,65.0,61.0,30.14,NNE,31,5.0,8.0,87,0.00,,,0.00,0.000000,,2013-07-26 07:10:00,
2013-07-26 03:43:00,65.0,61.0,30.14,NNE,31,5.0,8.0,87,0.00,,,0.00,0.000000,,2013-07-26 07:43:00,
2013-07-26 03:53:00,65.0,61.0,30.14,NNE,31,5.0,8.0,87,0.00,,,0.00,0.000000,,2013-07-26 07:53:00,
2013-07-26 04:02:00,65.0,61.0,30.14,NNE,31,5.0,8.0,87,0.00,,,0.00,0.000000,,2013-07-26 08:02:00,
2013-07-26 04:10:00,66.0,61.0,30.14,East,85,3.0,7.0,83,0.00,,,0.00,0.000000,,2013-07-26 08:10:00,
2013-07-26 04:32:00,66.0,61.0,30.14,East,85,3.0,7.0,83,0.00,,,0.00,0.000000,,2013-07-26 08:32:00,
2013-07-26 04:44:00,66.0,61.0,30.14,East,85,3.0,7.0,83,0.00,,,0.00,0.000000,,2013-07-26 08:44:00,
2013-07-26 04:52:00,66.0,61.0,30.14,East,85,3.0,7.0,83,0.00,,,0.00,0.000000,,2013-07-26 08:52:00,
2013-07-26 05:02:00,66.0,61.0,30.14,East,85,3.0,7.0,83,0.00,,,0.00,0.000000,,2013-07-26 09:02:00,
2013-07-26 05:10:00,64.0,61.0,30.15,NE,46,3.0,7.0,91,0.00,,,0.00,0.000000,,2013-07-26 09:10:00,
2013-07-26 05:43:00,64.0,61.0,30.15,NE,46,3.0,7.0,91,0.00,,,0.00,0.000000,,2013-07-26 09:43:00,
2013-07-26 05:52:00,64.0,61.0,30.15,NE,46,3.0,7.0,91,0.00,,,0.00,0.000000,,2013-07-26 09:52:00,
2013-07-26 06:02:00,64.0,61.0,30.15,NE,46,3.0,7.0,91,0.00,,,0.00,0.000000,,2013-07-26 10:02:00,
2013-07-26 06:10:00,66.0,62.0,30.16,ESE,103,4.0,8.0,88,0.00,,,0.00,0.000000,,2013-07-26 10:10:00,
2013-07-26 06:43:00,66.0,62.0,30.16,ESE,103,4.0,8.0,88,0.00,,,0.00,0.000000,,2013-07-26 10:43:00,
2013-07-26 06:53:00,66.0,62.0,30.16,ESE,103,4.0,8.0,88,0.00,,,0.00,0.000000,,2013-07-26 10:53:00,
2013-07-26 07:02:00,66.0,62.0,30.16,ESE,103,4.0,8.0,88,0.00,,,0.00,0.000000,,2013-07-26 11:02:00,
2013-07-26 07:10:00,64.0,61.0,30.17,East,101,4.0,7.0,91,0.00,,,0.00,0.000000,,2013-07-26 11:10:00,
2013-07-26 07:43:00,64.0,61.0,30.17,East,101,4.0,7.0,91,0.00,,,0.00,0.000000,,2013-07-26 11:43:00,
2013-07-26 07:52:00,64.0,61.0,30.17,East,101,4.0,7.0,91,0.00,,,0.00,0.000000,,2013-07-26 11:52:00,
2013-07-26 08:02:00,64.0,61.0,30.17,East,101,4.0,7.0,91,0.00,,,0.00,0.000000,,2013-07-26 12:02:00,
2013-07-26 08:10:00,64.0,62.0,30.18,SE,139,3.0,9.0,92,0.00,,,0.00,4.000000,,2013-07-26 12:10:00,
2013-07-26 08:43:00,64.0,62.0,30.18,SE,139,3.0,9.0,92,0.00,,,0.00,4.000000,,2013-07-26 12:43:00,
2013-07-26 08:53:00,64.0,62.0,30.18,SE,139,3.0,9.0,92,0.00,,,0.00,4.000000,,2013-07-26 12:53:00,
2013-07-26 09:02:00,64.0,62.0,30.18,SE,139,3.0,9.0,92,0.00,,,0.00,4.000000,,2013-07-26 13:02:00,
2013-07-26 09:10:00,64.0,61.0,30.20,WSW,249,2.0,7.0,89,0.00,,,0.00,38.000000,,2013-07-26 13:10:00,
2013-07-26 09:43:00,64.0,61.0,30.20,WSW,249,2.0,7.0,89,0.00,,,0.00,38.000000,,2013-07-26 13:43:00,
2013-07-26 09:53:00,64.0,61.0,30.20,WSW,249,2.0,7.0,89,0.00,,,0.00,38.000000,,2013-07-26 13:53:00,
2013-07-26 10:02:00,64.0,61.0,30.20,WSW,249,2.0,7.0,89,0.00,,,0.00,38.000000,,2013-07-26 14:02:00,
2013-07-26 10:10:00,68.0,65.0,30.20,SSW,199,2.0,7.0,91,0.00,,,0.00,77.000000,,2013-07-26 14:10:00,
2013-07-26 10:43:00,68.0,65.0,30.20,SSW,199,2.0,7.0,91,0.00,,,0.00,77.000000,,2013-07-26 14:43:00,
2013-07-26 10:53:00,68.0,65.0,30.20,SSW,199,2.0,7.0,91,0.00,,,0.00,77.000000,,2013-07-26 14:53:00,
2013-07-26 11:02:00,68.0,65.0,30.20,SSW,199,2.0,7.0,91,0.00,,,0.00,77.000000,,2013-07-26 15:02:00,
2013-07-26 11:10:00,72.0,67.0,30.21,South,187,2.0,8.0,84,0.00,,,0.00,143.000000,,2013-07-26 15:10:00,
2013-07-26 11:43:00,72.0,67.0,30.21,South,187,2.0,8.0,84,0.00,,,0.00,143.000000,,2013-07-26 15:43:00,
2013-07-26 11:53:00,72.0,67.0,30.21,South,187,2.0,8.0,84,0.00,,,0.00,143.000000,,2013-07-26 15:53:00,
2013-07-26 12:03:00,72.0,67.0,30.21,South,187,2.0,8.0,84,0.00,,,0.00,143.000000,,2013-07-26 16:03:00,
2013-07-26 12:10:00,74.0,67.0,30.20,SSW,195,5.0,13.0,79,0.00,,,0.00,403.000000,,2013-07-26 16:10:00,
2013-07-26 12:43:00,74.0,67.0,30.20,SSW,195,5.0,13.0,79,0.00,,,0.00,403.000000,,2013-07-26 16:43:00,
2013-07-26 12:54:00,74.0,67.0,30.20,SSW,195,5.0,13.0,79,0.00,,,0.00,403.000000,,2013-07-26 16:54:00,
2013-07-26 13:02:00,74.0,67.0,30.20,SSW,195,5.0,13.0,79,0.00,,,0.00,403.000000,,2013-07-26 17:02:00,
2013-07-26 13:10:00,77.0,66.0,30.19,South,191,5.0,13.0,70,0.00,,,0.00,459.000000,,2013-07-26 17:10:00,
2013-07-26 13:43:00,77.0,66.0,30.19,South,191,5.0,13.0,70,0.00,,,0.00,459.000000,,2013-07-26 17:43:00,
2013-07-26 13:53:00,77.0,66.0,30.19,South,191,5.0,13.0,70,0.00,,,0.00,459.000000,,2013-07-26 17:53:00,
2013-07-26 14:03:00,77.0,66.0,30.19,South,191,5.0,13.0,70,0.00,,,0.00,459.000000,,2013-07-26 18:03:00,
2013-07-26 14:10:00,80.0,68.0,30.18,South,190,7.0,16.0,66,0.00,,,0.00,878.000000,,2013-07-26 18:10:00,
2013-07-26 14:44:00,80.0,68.0,30.18,South,190,7.0,16.0,66,0.00,,,0.00,878.000000,,2013-07-26 18:44:00,
2013-07-26 14:53:00,80.0,68.0,30.18,South,190,7.0,16.0,66,0.00,,,0.00,878.000000,,2013-07-26 18:53:00,
2013-07-26 15:03:00,80.0,68.0,30.18,South,190,7.0,16.0,66,0.00,,,0.00,878.000000,,2013-07-26 19:03:00,
2013-07-26 15:10:00,82.0,69.0,30.17,SSW,203,6.0,15.0,64,0.00,,,0.00,903.000000,,2013-07-26 19:10:00,
2013-07-26 15:43:00,82.0,69.0,30.17,SSW,203,6.0,15.0,64,0.00,,,0.00,903.000000,,2013-07-26 19:43:00,
2013-07-26 15:52:00,82.0,69.0,30.17,SSW,203,6.0,15.0,64,0.00,,,0.00,903.000000,,2013-07-26 19:52:00,
2013-07-26 16:02:00,82.0,69.0,30.17,SSW,203,6.0,15.0,64,0.00,,,0.00,903.000000,,2013-07-26 20:02:00,
2013-07-26 16:10:00,80.0,67.0,30.15,SSW,201,8.0,16.0,65,0.00,,,0.00,1094.000000,,2013-07-26 20:10:00,
2013-07-26 16:43:00,80.0,67.0,30.15,SSW,201,8.0,16.0,65,0.00,,,0.00,1094.000000,,2013-07-26 20:43:00,
2013-07-26 16:53:00,80.0,67.0,30.15,SSW,201,8.0,16.0,65,0.00,,,0.00,1094.000000,,2013-07-26 20:53:00,
2013-07-26 17:02:00,80.0,67.0,30.15,SSW,201,8.0,16.0,65,0.00,,,0.00,1094.000000,,2013-07-26 21:02:00,
2013-07-26 17:10:00,78.0,68.0,30.13,SSW,201,6.0,14.0,72,0.00,,,0.00,784.000000,,2013-07-26 21:10:00,
2013-07-26 17:53:00,78.0,68.0,30.13,SSW,201,6.0,14.0,72,0.00,,,0.00,784.000000,,2013-07-26 21:53:00,
2013-07-26 18:02:00,78.0,68.0,30.13,SSW,201,6.0,14.0,72,0.00,,,0.00,784.000000,,2013-07-26 22:02:00,
2013-07-26 18:10:00,75.0,67.0,30.13,SSW,202,7.0,16.0,75,0.00,,,0.00,565.000000,,2013-07-26 22:10:00,
2013-07-26 18:43:00,75.0,67.0,30.13,SSW,202,7.0,16.0,75,0.00,,,0.00,565.000000,,2013-07-26 22:43:00,
2013-07-26 18:53:00,75.0,67.0,30.13,SSW,202,7.0,16.0,75,0.00,,,0.00,565.000000,,2013-07-26 22:53:00,
2013-07-26 19:02:00,75.0,67.0,30.13,SSW,202,7.0,16.0,75,0.00,,,0.00,565.000000,,2013-07-26 23:02:00,
2013-07-26 19:10:00,75.0,67.0,30.14,SSW,206,4.0,15.0,77,0.00,,,0.00,335.000000,,2013-07-26 23:10:00,
2013-07-26 19:43:00,75.0,67.0,30.14,SSW,206,4.0,15.0,77,0.00,,,0.00,335.000000,,2013-07-26 23:43:00,
2013-07-26 19:53:00,75.0,67.0,30.14,SSW,206,4.0,15.0,77,0.00,,,0.00,335.000000,,2013-07-26 23:53:00,
2013-07-26 20:02:00,75.0,67.0,30.14,SSW,206,4.0,15.0,77,0.00,,,0.00,335.000000,,2013-07-27 00:02:00,
2013-07-26 20:10:00,71.0,65.0,30.14,SSW,200,5.0,12.0,82,0.00,,,0.00,321.000000,,2013-07-27 00:10:00,
2013-07-26 20:32:00,71.0,65.0,30.14,SSW,200,5.0,12.0,82,0.00,,,0.00,321.000000,,2013-07-27 00:32:00,
2013-07-26 20:43:00,71.0,65.0,30.14,SSW,200,5.0,12.0,82,0.00,,,0.00,321.000000,,2013-07-27 00:43:00,
2013-07-26 20:53:00,71.0,65.0,30.14,SSW,200,5.0,12.0,82,0.00,,,0.00,321.000000,,2013-07-27 00:53:00,
2013-07-26 21:02:00,71.0,65.0,30.14,SSW,200,5.0,12.0,82,0.00,,,0.00,321.000000,,2013-07-27 01:02:00,
2013-07-26 21:10:00,72.0,67.0,30.14,SSW,204,5.0,9.0,84,0.00,,,0.00,84.000000,,2013-07-27 01:10:00,
2013-07-26 21:32:00,72.0,67.0,30.14,SSW,204,5.0,9.0,84,0.00,,,0.00,84.000000,,2013-07-27 01:32:00,
2013-07-26 21:44:00,72.0,67.0,30.14,SSW,204,5.0,9.0,84,0.00,,,0.00,84.000000,,2013-07-27 01:44:00,
2013-07-26 21:53:00,72.0,67.0,30.14,SSW,204,5.0,9.0,84,0.00,,,0.00,84.000000,,2013-07-27 01:53:00,
2013-07-26 22:02:00,72.0,67.0,30.14,SSW,204,5.0,9.0,84,0.00,,,0.00,84.000000,,2013-07-27 02:02:00,
2013-07-26 22:10:00,69.0,65.0,30.14,SSW,206,5.0,14.0,87,0.00,,,-99.99,1.000000,,2013-07-27 02:10:00,
2013-07-26 22:43:00,69.0,65.0,30.14,SSW,206,5.0,14.0,87,0.00,,,-99.99,1.000000,,2013-07-27 02:43:00,
2013-07-26 22:53:00,69.0,65.0,30.14,SSW,206,5.0,14.0,87,0.00,,,-99.99,1.000000,,2013-07-27 02:53:00,
2013-07-26 23:03:00,69.0,65.0,30.14,SSW,206,5.0,14.0,87,0.00,,,-99.99,1.000000,,2013-07-27 03:03:00,
2013-07-26 23:10:00,69.0,65.0,30.14,SSW,209,7.0,14.0,87,0.00,,,0.00,0.000000,,2013-07-27 03:10:00,
2013-07-26 23:44:00,69.0,65.0,30.14,SSW,209,7.0,14.0,87,0.00,,,0.00,0.000000,,2013-07-27 03:44:00,
2013-07-26 23:52:00,69.0,65.0,30.14,SSW,209,7.0,14.0,87,0.00,,,0.00,0.000000,,2013-07-27 03:52:00,